Time;durP1;ratioP1;P1;durP2;ratioP2;P2;SDS_P1;SDS_P2;PMS_P1;PMS_P2;Temp;Humidity;BMP_temperature;BMP_pressure;BME280_temperature;BME280_humidity;BME280_pressure;Samples;Min_cycle;Max_cycle;Signal;HPM_P1;HPM_P2
2023/10/30 00:00:08;;;;;;;9.30;2.85;;;11.40;99.90;;;;;;5055134;28;20705;-64
2023/10/30 00:02:34;;;;;;;8.68;2.65;;;11.40;99.90;;;;;;5055102;28;20182;-65
2023/10/30 00:05:00;;;;;;;7.85;2.30;;;11.40;99.90;;;;;;5055087;28;20186;-64
2023/10/30 00:07:27;;;;;;;10.27;2.92;;;11.40;99.90;;;;;;5054948;28;20172;-64
2023/10/30 00:09:53;;;;;;;12.27;3.42;;;11.40;99.90;;;;;;5054830;28;20241;-65
2023/10/30 00:12:19;;;;;;;10.02;2.47;;;11.40;99.90;;;;;;5055029;28;20652;-65
2023/10/30 00:14:44;;;;;;;9.43;3.20;;;11.40;99.90;;;;;;5054922;28;20545;-65
2023/10/30 00:17:10;;;;;;;11.82;2.88;;;11.40;99.90;;;;;;5054889;28;20640;-65
2023/10/30 00:19:36;;;;;;;8.98;2.58;;;11.40;99.90;;;;;;5053984;28;20683;-65
2023/10/30 00:22:01;;;;;;;10.80;2.70;;;11.40;99.90;;;;;;5054945;28;20564;-64
2023/10/30 00:24:29;;;;;;;10.30;3.10;;;11.40;99.90;;;;;;5054520;28;20179;-65
2023/10/30 00:26:55;;;;;;;8.20;2.55;;;11.30;99.90;;;;;;5054657;28;20217;-65
2023/10/30 00:29:21;;;;;;;10.32;3.15;;;11.40;99.90;;;;;;5054694;28;20203;-65
2023/10/30 00:31:47;;;;;;;5.82;2.50;;;11.40;99.90;;;;;;5054640;28;20571;-65
2023/10/30 00:34:13;;;;;;;8.15;2.85;;;11.40;99.90;;;;;;5054433;28;20565;-64
2023/10/30 00:36:38;;;;;;;11.23;3.10;;;11.40;99.90;;;;;;5054374;28;20214;-64
2023/10/30 00:39:04;;;;;;;10.93;2.80;;;11.40;99.90;;;;;;5054180;28;20278;-64
2023/10/30 00:41:31;;;;;;;9.45;2.80;;;11.50;99.90;;;;;;5054407;28;20659;-65
2023/10/30 00:43:56;;;;;;;10.82;3.08;;;11.50;99.90;;;;;;5054278;28;20179;-64
2023/10/30 00:46:22;;;;;;;6.88;2.42;;;11.50;99.90;;;;;;5054337;28;20178;-64
2023/10/30 00:48:48;;;;;;;7.22;2.63;;;11.50;99.90;;;;;;5054230;28;20179;-64
2023/10/30 00:51:14;;;;;;;9.00;2.67;;;11.50;99.90;;;;;;5054101;28;20179;-64
2023/10/30 00:53:40;;;;;;;9.45;2.65;;;11.40;99.90;;;;;;5053955;28;20172;-65
2023/10/30 00:56:06;;;;;;;9.38;2.75;;;11.50;99.90;;;;;;5054124;28;20186;-65
2023/10/30 00:58:33;;;;;;;9.52;2.40;;;11.40;99.90;;;;;;5054091;28;20207;-65
2023/10/30 01:00:59;;;;;;;9.35;2.80;;;11.50;99.90;;;;;;5053998;28;20176;-65
2023/10/30 01:03:24;;;;;;;6.93;2.22;;;11.50;99.90;;;;;;5053857;28;20176;-65
2023/10/30 01:05:57;;;;;;;7.75;2.25;;;11.40;99.90;;;;;;5053834;28;20578;-66
2023/10/30 01:08:23;;;;;;;7.72;2.50;;;11.40;99.90;;;;;;5053708;28;20211;-65
2023/10/30 01:10:49;;;;;;;10.77;3.15;;;11.50;99.90;;;;;;5053828;28;20218;-64
2023/10/30 01:13:15;;;;;;;7.40;2.35;;;11.50;99.90;;;;;;5053900;28;20175;-64
2023/10/30 01:15:40;;;;;;;10.52;2.78;;;11.50;99.90;;;;;;5054136;28;20213;-65
2023/10/30 01:18:06;;;;;;;6.65;2.10;;;11.60;99.90;;;;;;5053498;28;20186;-65
2023/10/30 01:20:37;;;;;;;6.38;2.20;;;11.60;99.90;;;;;;5053554;28;20227;-65
2023/10/30 01:23:02;;;;;;;10.30;2.65;;;11.50;99.90;;;;;;5053784;28;20179;-65
2023/10/30 01:25:28;;;;;;;7.63;2.38;;;11.50;99.90;;;;;;5053638;28;20175;-65
2023/10/30 01:27:54;;;;;;;11.23;2.90;;;11.40;99.90;;;;;;5053601;28;20175;-65
2023/10/30 01:30:20;;;;;;;6.70;2.47;;;11.40;99.90;;;;;;5053110;28;20628;-65
2023/10/30 01:32:45;;;;;;;7.40;2.17;;;11.50;99.90;;;;;;5052800;28;20171;-65
2023/10/30 01:35:11;;;;;;;8.40;3.05;;;11.50;99.90;;;;;;5053292;28;20175;-65
2023/10/30 01:37:37;;;;;;;6.53;2.55;;;11.50;99.90;;;;;;5053294;28;20178;-64
2023/10/30 01:40:03;;;;;;;6.28;2.45;;;11.50;99.90;;;;;;5053354;28;20313;-64
2023/10/30 01:42:28;;;;;;;9.75;2.70;;;11.50;99.90;;;;;;5053463;28;20175;-64
2023/10/30 01:44:58;;;;;;;7.97;2.63;;;11.50;99.90;;;;;;5053339;28;20177;-64
2023/10/30 01:47:25;;;;;;;7.60;2.40;;;11.50;99.90;;;;;;5053218;28;20168;-65
2023/10/30 01:49:58;;;;;;;7.25;2.67;;;11.50;99.90;;;;;;5053053;28;20218;-65
2023/10/30 01:52:26;;;;;;;8.30;2.50;;;11.50;99.90;;;;;;5053396;28;20167;-65
2023/10/30 01:54:53;;;;;;;9.00;2.70;;;11.50;99.90;;;;;;5053190;28;20176;-64
2023/10/30 01:57:22;;;;;;;9.68;2.88;;;11.50;99.90;;;;;;5053192;28;20207;-65
2023/10/30 01:59:50;;;;;;;8.90;2.42;;;11.50;99.90;;;;;;5053061;28;20722;-65
2023/10/30 02:02:18;;;;;;;8.38;2.45;;;11.50;99.90;;;;;;5053241;28;20179;-65
2023/10/30 02:04:44;;;;;;;7.38;2.55;;;11.50;99.90;;;;;;5053273;28;20179;-65
2023/10/30 02:07:09;;;;;;;8.18;2.78;;;11.50;99.90;;;;;;5053165;28;20655;-65
2023/10/30 02:09:35;;;;;;;11.23;2.95;;;11.40;99.90;;;;;;5053103;28;20186;-65
2023/10/30 02:12:01;;;;;;;12.10;3.20;;;11.50;99.90;;;;;;5053030;28;20173;-65
2023/10/30 02:14:27;;;;;;;9.52;2.63;;;11.50;99.90;;;;;;5052850;28;20182;-64
2023/10/30 02:16:52;;;;;;;6.82;2.70;;;11.50;99.90;;;;;;5052793;28;20210;-64
2023/10/30 02:19:26;;;;;;;4.88;2.33;;;11.50;99.90;;;;;;5053008;28;20300;-65
2023/10/30 02:21:52;;;;;;;7.57;2.55;;;11.50;99.90;;;;;;5052738;28;20257;-65
2023/10/30 02:24:18;;;;;;;8.65;2.58;;;11.50;99.90;;;;;;5052853;28;20184;-65
2023/10/30 02:26:44;;;;;;;9.98;2.90;;;11.40;99.90;;;;;;5052891;28;20640;-65
2023/10/30 02:29:10;;;;;;;7.85;2.38;;;11.40;99.90;;;;;;5053002;28;20183;-65
2023/10/30 02:31:35;;;;;;;8.30;2.55;;;11.40;99.90;;;;;;5052707;28;20191;-65
2023/10/30 02:34:02;;;;;;;6.00;2.85;;;11.30;99.90;;;;;;5053043;28;20179;-63
2023/10/30 02:36:28;;;;;;;6.60;2.35;;;11.30;99.90;;;;;;5052845;28;20187;-64
2023/10/30 02:38:54;;;;;;;6.20;2.28;;;11.30;99.90;;;;;;5052727;28;20289;-64
2023/10/30 02:41:20;;;;;;;8.85;2.55;;;11.30;99.90;;;;;;5052688;28;20182;-65
2023/10/30 02:43:46;;;;;;;7.43;2.35;;;11.30;99.90;;;;;;5055701;28;20261;-65
2023/10/30 02:46:12;;;;;;;7.90;2.10;;;11.20;99.90;;;;;;5056387;28;20574;-65
2023/10/30 02:48:37;;;;;;;6.90;2.35;;;11.20;99.90;;;;;;5056646;28;20182;-62
2023/10/30 02:51:03;;;;;;;9.50;2.42;;;11.30;99.90;;;;;;5056553;28;20171;-64
2023/10/30 02:53:29;;;;;;;8.07;2.33;;;11.30;99.90;;;;;;5056254;28;20194;-64
2023/10/30 02:55:55;;;;;;;8.32;2.70;;;11.40;99.90;;;;;;5056333;28;20180;-65
2023/10/30 02:58:20;;;;;;;10.18;2.55;;;11.40;99.90;;;;;;5056274;28;20672;-65
2023/10/30 03:00:46;;;;;;;8.50;2.70;;;11.30;99.90;;;;;;5056128;28;20683;-65
2023/10/30 03:03:12;;;;;;;8.57;2.58;;;11.20;99.90;;;;;;5056162;28;20228;-65
2023/10/30 03:05:38;;;;;;;6.80;2.55;;;11.30;99.90;;;;;;5056191;28;20194;-63
2023/10/30 03:08:03;;;;;;;7.30;2.50;;;11.20;99.90;;;;;;5056170;28;20625;-64
2023/10/30 03:10:30;;;;;;;10.75;2.58;;;11.20;99.90;;;;;;5056047;28;20678;-65
2023/10/30 03:12:56;;;;;;;9.27;2.58;;;11.20;99.90;;;;;;5056083;28;20176;-65
2023/10/30 03:15:22;;;;;;;7.60;2.50;;;11.20;99.90;;;;;;5055904;28;20233;-65
2023/10/30 03:17:48;;;;;;;7.13;2.95;;;11.20;99.90;;;;;;5056239;28;20591;-65
2023/10/30 03:20:14;;;;;;;8.13;2.78;;;11.20;99.90;;;;;;5055791;28;20306;-64
2023/10/30 03:22:40;;;;;;;5.05;2.03;;;11.20;99.90;;;;;;5055953;28;20176;-64
2023/10/30 03:25:06;;;;;;;8.77;2.35;;;11.30;99.90;;;;;;5055740;28;20233;-65
2023/10/30 03:27:33;;;;;;;7.90;2.63;;;11.40;99.90;;;;;;5055717;28;20175;-65
2023/10/30 03:29:59;;;;;;;9.05;2.75;;;11.30;99.90;;;;;;5055611;28;20633;-65
2023/10/30 03:32:25;;;;;;;8.70;2.17;;;11.20;99.90;;;;;;5055834;28;20182;-66
2023/10/30 03:34:52;;;;;;;6.72;2.45;;;11.30;99.90;;;;;;5055769;28;20175;-65
2023/10/30 03:37:18;;;;;;;7.72;2.53;;;11.30;99.90;;;;;;5055584;28;20258;-65
2023/10/30 03:39:44;;;;;;;8.25;2.63;;;11.40;99.90;;;;;;5055390;28;20198;-64
2023/10/30 03:42:10;;;;;;;7.13;2.58;;;11.30;99.90;;;;;;5054255;28;20604;-65
2023/10/30 03:44:35;;;;;;;8.00;2.42;;;11.40;99.90;;;;;;5055299;28;20203;-65
2023/10/30 03:47:01;;;;;;;7.00;2.40;;;11.40;99.90;;;;;;5055561;28;20632;-65
2023/10/30 03:49:27;;;;;;;7.57;2.83;;;11.40;99.90;;;;;;5055405;28;20180;-64
2023/10/30 03:51:52;;;;;;;9.40;2.65;;;11.30;99.90;;;;;;5055309;28;20545;-65
2023/10/30 03:54:18;;;;;;;10.30;2.67;;;11.40;99.90;;;;;;5053030;28;20167;-64
2023/10/30 03:56:44;;;;;;;9.50;2.28;;;11.40;99.90;;;;;;5055217;28;20167;-65
2023/10/30 03:59:10;;;;;;;7.53;2.20;;;11.50;99.90;;;;;;5054951;28;20203;-65
2023/10/30 04:01:36;;;;;;;5.55;2.47;;;11.40;99.90;;;;;;5055057;28;20702;-65
2023/10/30 04:04:02;;;;;;;11.65;2.50;;;11.40;99.90;;;;;;5055192;28;20180;-65
2023/10/30 04:06:28;;;;;;;8.00;2.58;;;11.40;99.90;;;;;;5055134;28;20179;-64
2023/10/30 04:08:54;;;;;;;10.00;2.58;;;11.50;99.90;;;;;;5054887;28;20276;-64
2023/10/30 04:11:20;;;;;;;9.63;2.60;;;11.40;99.90;;;;;;5054919;28;20255;-65
2023/10/30 04:13:45;;;;;;;6.03;2.03;;;11.40;99.90;;;;;;5054746;28;20176;-65
2023/10/30 04:16:14;;;;;;;8.55;2.50;;;11.50;99.90;;;;;;5054916;28;20183;-65
2023/10/30 04:18:39;;;;;;;10.02;2.38;;;11.50;99.90;;;;;;5054794;28;20238;-64
2023/10/30 04:21:06;;;;;;;6.38;2.47;;;11.50;99.90;;;;;;5054576;28;20259;-65
2023/10/30 04:23:32;;;;;;;7.00;2.75;;;11.50;99.90;;;;;;5054680;28;20175;-65
2023/10/30 04:25:57;;;;;;;6.65;2.22;;;11.50;99.90;;;;;;5054609;28;20528;-65
2023/10/30 04:28:23;;;;;;;6.72;2.20;;;11.50;99.90;;;;;;5054563;28;20175;-66
2023/10/30 04:30:49;;;;;;;9.90;2.72;;;11.60;99.90;;;;;;5054716;28;20632;-65
2023/10/30 04:33:15;;;;;;;9.65;3.25;;;11.60;99.90;;;;;;5054650;28;20180;-66
2023/10/30 04:35:41;;;;;;;6.97;2.22;;;11.60;99.90;;;;;;5054578;28;20202;-64
2023/10/30 04:38:07;;;;;;;6.82;2.35;;;11.60;99.90;;;;;;5054350;28;20577;-64
2023/10/30 04:40:33;;;;;;;9.77;2.45;;;11.60;99.90;;;;;;5054375;28;20176;-65
2023/10/30 04:42:59;;;;;;;6.43;2.17;;;11.70;99.90;;;;;;5054141;28;20640;-65
2023/10/30 04:45:24;;;;;;;10.88;2.90;;;11.70;99.90;;;;;;5054407;28;20175;-65
2023/10/30 04:47:50;;;;;;;6.38;2.35;;;11.70;99.90;;;;;;5054343;28;20656;-65
2023/10/30 04:50:16;;;;;;;8.48;2.40;;;11.70;99.90;;;;;;5054223;28;20176;-64
2023/10/30 04:52:42;;;;;;;9.20;2.75;;;11.60;99.90;;;;;;5054148;28;20195;-64
2023/10/30 04:55:07;;;;;;;9.43;2.22;;;11.60;99.90;;;;;;5053984;28;20210;-65
2023/10/30 04:57:33;;;;;;;8.88;2.28;;;11.60;99.90;;;;;;5053955;28;20206;-64
2023/10/30 04:59:59;;;;;;;9.93;2.90;;;11.60;99.90;;;;;;5053900;28;20207;-65
2023/10/30 05:02:25;;;;;;;10.00;2.40;;;11.60;99.90;;;;;;5053852;28;20659;-65
2023/10/30 05:04:50;;;;;;;9.73;3.00;;;11.50;99.90;;;;;;5053889;28;20199;-65
2023/10/30 05:07:16;;;;;;;9.10;2.83;;;11.60;99.90;;;;;;5053835;28;20179;-64
2023/10/30 05:09:42;;;;;;;10.50;3.22;;;11.70;99.90;;;;;;5053862;28;20261;-64
2023/10/30 05:12:07;;;;;;;7.03;2.30;;;11.60;99.90;;;;;;5053633;28;20670;-65
2023/10/30 05:14:33;;;;;;;9.70;2.70;;;11.60;99.90;;;;;;5053721;28;20183;-65
2023/10/30 05:16:58;;;;;;;8.20;2.63;;;11.60;99.90;;;;;;5053607;28;20204;-65
2023/10/30 05:19:24;;;;;;;8.40;2.33;;;11.60;99.90;;;;;;5053565;28;20324;-65
2023/10/30 05:21:50;;;;;;;9.02;2.40;;;11.60;99.90;;;;;;5053459;28;20279;-65
2023/10/30 05:24:15;;;;;;;10.98;3.08;;;11.50;99.90;;;;;;5053551;28;20183;-65
2023/10/30 05:26:41;;;;;;;6.47;2.78;;;11.50;99.90;;;;;;5053435;28;20183;-64
2023/10/30 05:29:06;;;;;;;8.57;2.90;;;11.60;99.90;;;;;;5053475;28;20175;-64
2023/10/30 05:31:32;;;;;;;8.45;3.20;;;11.60;99.90;;;;;;5053826;28;20176;-65
2023/10/30 05:33:59;;;;;;;11.18;3.58;;;11.60;99.90;;;;;;5053518;28;20175;-64
2023/10/30 05:36:25;;;;;;;8.43;3.35;;;11.50;99.90;;;;;;5053367;28;20187;-65
2023/10/30 05:38:50;;;;;;;12.50;3.53;;;11.50;99.90;;;;;;5053269;28;20206;-65
2023/10/30 05:41:16;;;;;;;10.43;3.60;;;11.50;99.90;;;;;;5053309;28;20171;-65
2023/10/30 05:43:41;;;;;;;9.77;3.72;;;11.40;99.90;;;;;;5053256;28;20206;-65
2023/10/30 05:46:07;;;;;;;9.52;3.78;;;11.50;99.90;;;;;;5053421;28;20228;-65
2023/10/30 05:48:33;;;;;;;11.32;3.83;;;11.40;99.90;;;;;;5053504;28;20532;-65
2023/10/30 05:50:58;;;;;;;9.43;3.67;;;11.40;99.90;;;;;;5053269;28;20183;-65
2023/10/30 05:53:24;;;;;;;13.70;3.70;;;11.40;99.90;;;;;;5053182;28;20640;-64
2023/10/30 05:55:49;;;;;;;12.82;4.30;;;11.40;99.90;;;;;;5053074;28;20175;-65
2023/10/30 05:58:15;;;;;;;13.80;4.40;;;11.40;99.90;;;;;;5052997;28;20525;-64
2023/10/30 06:00:42;;;;;;;10.80;3.70;;;11.40;99.90;;;;;;5053253;28;20171;-64
2023/10/30 06:03:09;;;;;;;11.55;3.95;;;11.40;99.90;;;;;;5053055;28;20187;-64
2023/10/30 06:05:35;;;;;;;9.48;4.07;;;11.50;99.90;;;;;;5053137;28;20175;-65
2023/10/30 06:08:01;;;;;;;9.07;3.70;;;11.40;99.90;;;;;;5053009;28;20168;-65
2023/10/30 06:10:26;;;;;;;9.45;3.67;;;11.50;99.90;;;;;;5052958;28;20266;-65
2023/10/30 06:12:52;;;;;;;8.38;3.70;;;11.50;99.90;;;;;;5052021;28;20256;-65
2023/10/30 06:15:18;;;;;;;10.75;3.35;;;11.50;99.90;;;;;;5053125;28;20179;-64
2023/10/30 06:17:44;;;;;;;9.93;3.42;;;11.50;99.90;;;;;;5054895;28;20171;-64
2023/10/30 06:20:10;;;;;;;9.98;4.03;;;11.50;99.90;;;;;;5056849;28;20221;-64
2023/10/30 06:22:36;;;;;;;8.07;3.10;;;11.50;99.90;;;;;;5057041;28;20217;-64
2023/10/30 06:25:01;;;;;;;9.57;3.60;;;11.60;99.90;;;;;;5056927;28;20528;-65
2023/10/30 06:27:27;;;;;;;8.25;3.55;;;11.60;99.90;;;;;;5057091;28;20175;-65
2023/10/30 06:29:53;;;;;;;9.32;3.25;;;11.60;99.90;;;;;;5056942;28;20179;-64
2023/10/30 06:32:19;;;;;;;11.55;4.00;;;11.50;99.90;;;;;;5056923;28;20250;-64
2023/10/30 06:34:45;;;;;;;10.90;3.78;;;11.50;99.90;;;;;;5056691;28;20182;-64
2023/10/30 06:37:10;;;;;;;7.05;3.60;;;11.50;99.90;;;;;;5056772;28;20183;-66
2023/10/30 06:39:37;;;;;;;8.50;3.22;;;11.50;99.90;;;;;;5056462;28;20203;-65
2023/10/30 06:42:03;;;;;;;12.00;3.75;;;11.40;99.90;;;;;;5056806;28;20168;-65
2023/10/30 06:44:30;;;;;;;9.30;3.38;;;11.40;99.90;;;;;;5056648;28;20205;-62
2023/10/30 06:46:57;;;;;;;7.28;3.17;;;11.40;99.90;;;;;;5056609;28;20656;-64
2023/10/30 06:49:23;;;;;;;9.88;3.65;;;11.40;99.90;;;;;;5056492;28;20524;-65
2023/10/30 06:51:49;;;;;;;6.88;3.05;;;11.50;99.90;;;;;;5056513;28;20179;-64
2023/10/30 06:54:15;;;;;;;8.07;3.50;;;11.50;99.90;;;;;;5056240;28;20179;-65
2023/10/30 06:56:41;;;;;;;8.52;3.15;;;11.50;99.90;;;;;;5056254;28;20620;-64
2023/10/30 06:59:09;;;;;;;6.53;3.00;;;11.50;99.90;;;;;;5056168;28;20571;-64
2023/10/30 07:01:45;;;;;;;11.02;3.53;;;11.50;99.90;;;;;;5056391;28;20217;-65
2023/10/30 07:04:14;;;;;;;8.88;2.95;;;11.50;99.90;;;;;;5056319;28;20624;-65
2023/10/30 07:06:41;;;;;;;8.95;3.28;;;11.60;99.90;;;;;;5056148;28;20171;-64
2023/10/30 07:09:08;;;;;;;11.18;3.20;;;11.60;99.90;;;;;;5056272;28;20190;-65
2023/10/30 07:11:34;;;;;;;8.02;2.92;;;11.60;99.90;;;;;;5056273;28;20178;-65
2023/10/30 07:14:04;;;;;;;8.50;2.72;;;11.70;99.90;;;;;;5056065;28;20255;-65
2023/10/30 07:16:30;;;;;;;14.35;2.80;;;11.80;99.90;;;;;;5056072;28;20217;-64
2023/10/30 07:18:56;;;;;;;6.90;2.72;;;11.80;99.90;;;;;;5055813;28;20203;-64
2023/10/30 07:21:23;;;;;;;11.32;3.55;;;11.80;99.90;;;;;;5055904;28;20696;-65
2023/10/30 07:23:49;;;;;;;8.75;2.80;;;11.70;99.90;;;;;;5055985;28;20175;-65
2023/10/30 07:26:15;;;;;;;10.00;2.92;;;11.70;99.90;;;;;;5055930;28;20176;-65
2023/10/30 07:28:40;;;;;;;7.70;2.92;;;11.70;99.90;;;;;;5055539;28;20548;-64
2023/10/30 07:31:06;;;;;;;11.10;2.80;;;11.70;99.90;;;;;;5055722;28;20179;-64
2023/10/30 07:33:32;;;;;;;6.65;2.70;;;11.80;99.90;;;;;;5055617;28;20534;-65
2023/10/30 07:36:01;;;;;;;13.77;3.15;;;11.80;99.90;;;;;;5055610;28;20638;-65
2023/10/30 07:38:29;;;;;;;7.47;2.53;;;11.90;99.90;;;;;;5055620;28;20207;-65
2023/10/30 07:40:56;;;;;;;10.65;2.80;;;12.00;99.90;;;;;;5055435;28;20310;-64
2023/10/30 07:43:22;;;;;;;8.73;3.15;;;12.10;99.90;;;;;;5054266;28;20276;-65
2023/10/30 07:45:48;;;;;;;8.50;2.95;;;12.20;99.90;;;;;;5055419;28;20640;-65
2023/10/30 07:48:15;;;;;;;9.40;2.65;;;12.20;99.90;;;;;;5055255;28;20225;-65
2023/10/30 07:50:41;;;;;;;7.00;2.65;;;12.20;99.90;;;;;;5055159;28;20662;-65
2023/10/30 07:53:08;;;;;;;10.27;2.78;;;12.30;99.90;;;;;;5055467;28;20167;-65
2023/10/30 07:55:34;;;;;;;7.95;2.78;;;12.30;99.90;;;;;;5055371;28;20187;-65
2023/10/30 07:58:00;;;;;;;7.63;2.35;;;12.30;99.90;;;;;;5055175;28;20191;-65
2023/10/30 08:00:25;;;;;;;11.63;2.80;;;12.20;99.90;;;;;;5055090;28;20576;-64
2023/10/30 08:02:51;;;;;;;7.60;2.30;;;12.20;99.90;;;;;;5055079;28;20175;-64
2023/10/30 08:05:17;;;;;;;8.23;2.58;;;12.10;99.90;;;;;;5054950;28;20696;-64
2023/10/30 08:07:46;;;;;;;7.53;2.50;;;12.10;99.90;;;;;;5054993;28;20529;-65
2023/10/30 08:10:13;;;;;;;8.05;2.65;;;12.10;99.90;;;;;;5055048;28;20183;-64
2023/10/30 08:12:40;;;;;;;7.50;2.67;;;12.20;99.90;;;;;;5055008;28;20179;-65
2023/10/30 08:15:07;;;;;;;7.78;2.88;;;12.20;99.90;;;;;;5054861;28;20167;-64
2023/10/30 08:17:32;;;;;;;11.40;2.50;;;12.30;99.90;;;;;;5053665;28;20176;-64
2023/10/30 08:19:58;;;;;;;10.82;3.35;;;12.40;99.90;;;;;;5054644;28;20203;-65
2023/10/30 08:22:24;;;;;;;11.13;2.47;;;12.40;99.90;;;;;;5053365;28;20276;-64
2023/10/30 08:24:51;;;;;;;9.82;2.70;;;12.50;99.90;;;;;;5054767;28;20274;-64
2023/10/30 08:27:17;;;;;;;6.68;2.22;;;12.50;99.90;;;;;;5054660;28;20180;-64
2023/10/30 08:29:43;;;;;;;7.20;2.60;;;12.50;99.90;;;;;;5054620;28;20171;-66
2023/10/30 08:32:08;;;;;;;9.40;2.95;;;12.50;99.90;;;;;;5054441;28;20201;-64
2023/10/30 08:34:34;;;;;;;6.95;2.38;;;12.50;99.90;;;;;;5054346;28;20175;-64
2023/10/30 08:36:59;;;;;;;6.15;2.15;;;12.60;99.90;;;;;;5054503;28;20171;-64
2023/10/30 08:39:25;;;;;;;7.72;2.75;;;12.60;99.90;;;;;;5054453;28;20210;-64
2023/10/30 08:41:51;;;;;;;7.78;2.47;;;12.60;99.90;;;;;;5053941;28;20262;-64
2023/10/30 08:44:17;;;;;;;7.03;2.60;;;12.70;99.90;;;;;;5054303;28;20171;-64
2023/10/30 08:46:43;;;;;;;7.38;2.47;;;12.70;99.90;;;;;;5054288;28;20266;-64
2023/10/30 08:49:08;;;;;;;7.10;2.10;;;12.80;99.90;;;;;;5054010;28;20237;-64
2023/10/30 08:51:41;;;;;;;10.52;2.53;;;12.80;99.90;;;;;;5054340;28;20183;-64
2023/10/30 08:54:07;;;;;;;8.43;2.75;;;12.70;99.90;;;;;;5054241;28;20202;-65
2023/10/30 08:56:33;;;;;;;8.43;2.55;;;12.70;99.90;;;;;;5054093;28;20218;-64
2023/10/30 08:58:58;;;;;;;10.02;2.60;;;12.80;99.90;;;;;;5053872;28;20216;-64
2023/10/30 09:01:24;;;;;;;8.52;2.40;;;12.70;99.90;;;;;;5053875;28;20275;-65
2023/10/30 09:03:50;;;;;;;10.95;2.45;;;12.80;99.90;;;;;;5053837;28;20221;-65
2023/10/30 09:06:16;;;;;;;5.75;2.13;;;12.80;99.90;;;;;;5053747;28;20175;-64
2023/10/30 09:08:41;;;;;;;11.10;2.80;;;12.90;99.90;;;;;;5053891;28;20186;-63
2023/10/30 09:11:07;;;;;;;9.98;2.63;;;12.80;99.90;;;;;;5054055;28;20181;-64
2023/10/30 09:13:32;;;;;;;6.82;2.40;;;12.80;99.90;;;;;;5053780;28;20175;-64
2023/10/30 09:15:58;;;;;;;6.50;2.53;;;12.80;99.90;;;;;;5053629;28;20207;-63
2023/10/30 09:18:24;;;;;;;5.85;2.50;;;12.90;99.90;;;;;;5053515;28;20637;-64
2023/10/30 09:20:50;;;;;;;10.43;2.22;;;12.90;99.90;;;;;;5053546;28;20223;-64
2023/10/30 09:23:16;;;;;;;11.55;2.60;;;13.00;99.90;;;;;;5053739;28;20210;-63
2023/10/30 09:25:42;;;;;;;6.32;2.25;;;13.00;99.90;;;;;;5052466;28;20203;-65
2023/10/30 09:28:07;;;;;;;9.98;2.50;;;13.00;99.90;;;;;;5053487;28;20637;-64
2023/10/30 09:30:33;;;;;;;6.63;1.88;;;13.10;99.90;;;;;;5053456;28;20179;-64
2023/10/30 09:32:59;;;;;;;8.80;2.78;;;13.10;99.90;;;;;;5053330;28;20649;-64
2023/10/30 09:35:29;;;;;;;7.38;2.38;;;13.00;99.90;;;;;;5053511;28;20506;-64
2023/10/30 09:37:58;;;;;;;9.27;2.60;;;13.00;99.90;;;;;;5053352;28;20644;-64
2023/10/30 09:40:27;;;;;;;7.03;2.28;;;13.00;99.90;;;;;;5053270;28;20225;-64
2023/10/30 09:42:54;;;;;;;6.45;2.45;;;12.90;99.90;;;;;;5052002;28;20172;-64
2023/10/30 09:45:24;;;;;;;7.30;2.20;;;13.00;99.90;;;;;;5051957;28;20206;-64
2023/10/30 09:47:57;;;;;;;10.95;2.50;;;13.00;99.90;;;;;;5053377;28;20521;-64
2023/10/30 09:50:26;;;;;;;8.48;2.70;;;13.00;99.90;;;;;;5053086;28;20690;-64
2023/10/30 09:52:53;;;;;;;5.57;2.00;;;13.00;99.90;;;;;;5052323;28;20171;-64
2023/10/30 09:55:22;;;;;;;7.10;2.53;;;12.80;99.90;;;;;;5053136;28;20214;-64
2023/10/30 09:57:48;;;;;;;6.00;2.47;;;12.80;99.90;;;;;;5053100;28;20159;-64
2023/10/30 10:00:15;;;;;;;9.00;2.35;;;12.90;99.90;;;;;;5053187;28;20675;-64
2023/10/30 10:02:42;;;;;;;7.47;2.47;;;12.80;99.90;;;;;;5053321;28;20198;-64
2023/10/30 10:05:09;;;;;;;6.88;2.60;;;12.80;99.90;;;;;;5053028;28;20674;-64
2023/10/30 10:07:35;;;;;;;7.90;3.47;;;12.90;99.90;;;;;;5051789;28;20183;-64
2023/10/30 10:10:03;;;;;;;4.40;2.40;;;12.90;99.90;;;;;;5051768;28;20543;-64
2023/10/30 10:12:30;;;;;;;8.63;2.30;;;12.80;99.90;;;;;;5051681;28;20256;-63
2023/10/30 10:14:56;;;;;;;4.93;2.17;;;12.70;99.90;;;;;;5053054;28;20217;-64
2023/10/30 10:17:22;;;;;;;6.22;2.53;;;12.80;99.90;;;;;;5052517;28;20184;-64
2023/10/30 10:19:49;;;;;;;5.75;2.20;;;12.80;99.90;;;;;;5052714;28;20214;-63
2023/10/30 10:22:28;;;;;;;7.05;2.45;;;12.90;99.90;;;;;;5052857;28;20245;-64
2023/10/30 10:24:55;;;;;;;8.52;3.03;;;12.90;99.90;;;;;;5052794;28;20620;-64
2023/10/30 10:27:24;;;;;;;4.68;2.05;;;12.90;99.90;;;;;;5053101;28;20168;-64
2023/10/30 10:29:57;;;;;;;7.07;3.28;;;12.90;99.90;;;;;;5052960;28;20172;-64
2023/10/30 10:32:26;;;;;;;9.70;4.47;;;12.90;99.90;;;;;;5052916;28;20620;-64
2023/10/30 10:34:54;;;;;;;6.53;3.00;;;12.90;99.90;;;;;;5052875;28;20175;-64
2023/10/30 10:37:20;;;;;;;5.18;3.30;;;12.90;99.90;;;;;;5052729;28;20186;-63
2023/10/30 10:39:50;;;;;;;6.22;2.97;;;12.90;99.90;;;;;;5052637;28;20661;-63
2023/10/30 10:42:18;;;;;;;7.15;2.80;;;13.00;99.90;;;;;;5052852;28;20202;-64
2023/10/30 10:44:45;;;;;;;8.35;2.35;;;13.00;99.90;;;;;;5052666;28;20253;-64
2023/10/30 10:47:11;;;;;;;6.18;2.35;;;12.90;99.90;;;;;;5052855;28;20171;-64
2023/10/30 10:49:38;;;;;;;5.80;2.60;;;13.00;99.90;;;;;;5052691;28;20214;-64
2023/10/30 10:52:08;;;;;;;6.20;2.95;;;13.10;99.90;;;;;;5052533;28;20171;-64
2023/10/30 10:54:41;;;;;;;4.30;2.20;;;13.10;99.90;;;;;;5052870;28;20204;-64
2023/10/30 10:57:10;;;;;;;6.20;2.47;;;13.20;99.90;;;;;;5052738;28;20258;-63
2023/10/30 10:59:39;;;;;;;4.90;2.05;;;13.20;99.90;;;;;;5052670;28;20533;-63
2023/10/30 11:02:11;;;;;;;4.63;2.33;;;13.20;99.90;;;;;;5052586;28;20175;-64
2023/10/30 11:04:37;;;;;;;5.65;2.65;;;13.30;99.90;;;;;;5055006;28;20564;-64
2023/10/30 11:07:07;;;;;;;5.03;2.85;;;13.30;99.90;;;;;;5056102;28;20625;-64
2023/10/30 11:09:41;;;;;;;5.28;2.70;;;13.40;99.90;;;;;;5056345;28;20649;-64
2023/10/30 11:12:28;;;;;;;5.47;2.97;;;13.30;99.90;;;;;;5056681;28;20274;-64
2023/10/30 11:15:12;;;;;;;8.43;3.13;;;13.40;99.90;;;;;;5055954;28;20210;-63
2023/10/30 11:17:38;;;;;;;5.53;2.80;;;13.50;99.90;;;;;;5056126;28;20175;-64
2023/10/30 11:20:08;;;;;;;6.25;2.70;;;13.50;99.90;;;;;;5056066;28;20569;-64
2023/10/30 11:22:40;;;;;;;7.50;2.88;;;13.60;99.90;;;;;;5055857;28;20227;-64
2023/10/30 11:25:26;;;;;;;5.70;2.65;;;13.60;99.90;;;;;;5055914;28;20168;-65
2023/10/30 11:27:52;;;;;;;9.15;2.97;;;13.60;99.90;;;;;;5055860;28;20262;-64
2023/10/30 11:30:23;;;;;;;4.55;2.63;;;13.50;99.90;;;;;;5055894;28;20258;-64
2023/10/30 11:32:48;;;;;;;5.53;2.80;;;13.50;99.90;;;;;;5055792;28;20579;-64
2023/10/30 11:35:14;;;;;;;6.40;2.78;;;13.60;99.90;;;;;;5055610;28;20174;-64
2023/10/30 11:37:40;;;;;;;5.25;2.70;;;13.60;99.90;;;;;;5055594;28;20179;-64
2023/10/30 11:40:09;;;;;;;5.60;2.85;;;13.60;99.90;;;;;;5055480;28;20708;-64
2023/10/30 11:42:40;;;;;;;5.75;4.22;;;13.60;99.90;;;;;;5055395;28;20181;-64
2023/10/30 11:45:19;;;;;;;11.52;10.32;;;13.50;99.90;;;;;;5055612;28;20183;-64
2023/10/30 11:47:56;;;;;;;11.52;10.20;;;13.60;99.90;;;;;;5055755;28;20179;-65
2023/10/30 11:50:28;;;;;;;10.50;8.63;;;13.60;99.90;;;;;;5055255;28;20570;-64
2023/10/30 11:52:57;;;;;;;8.35;6.95;;;13.60;99.90;;;;;;5055597;28;20624;-64
2023/10/30 11:55:23;;;;;;;10.25;7.97;;;13.50;99.90;;;;;;5055403;28;20168;-64
2023/10/30 11:57:49;;;;;;;14.10;11.25;;;13.50;99.90;;;;;;5055320;28;20194;-65
2023/10/30 12:00:15;;;;;;;12.50;10.27;;;13.50;99.90;;;;;;5055162;28;20219;-64
2023/10/30 12:02:41;;;;;;;11.20;6.68;;;13.50;99.90;;;;;;5055149;28;20336;-65
2023/10/30 12:05:08;;;;;;;9.20;7.55;;;13.60;99.90;;;;;;5054968;28;20258;-65
2023/10/30 12:07:34;;;;;;;9.60;8.02;;;13.60;99.90;;;;;;5055290;28;20168;-64
2023/10/30 12:10:02;;;;;;;9.40;7.13;;;13.70;99.90;;;;;;5055110;28;20538;-64
2023/10/30 12:12:29;;;;;;;8.45;5.85;;;13.70;99.90;;;;;;5054983;28;20178;-64
2023/10/30 12:14:59;;;;;;;9.90;7.53;;;13.60;99.90;;;;;;5054297;28;20237;-64
2023/10/30 12:17:25;;;;;;;20.27;16.17;;;13.70;99.90;;;;;;5054880;28;20205;-64
2023/10/30 12:19:51;;;;;;;11.55;7.43;;;13.70;99.90;;;;;;5054676;28;20199;-64
2023/10/30 12:22:17;;;;;;;7.65;3.85;;;13.70;99.90;;;;;;5055121;28;20550;-64
2023/10/30 12:24:43;;;;;;;8.48;3.90;;;13.70;99.90;;;;;;5054812;28;20301;-64
2023/10/30 12:27:17;;;;;;;5.38;3.28;;;13.70;99.90;;;;;;5055118;28;20513;-64
2023/10/30 12:29:43;;;;;;;5.75;2.97;;;13.80;99.90;;;;;;5054706;28;20202;-64
2023/10/30 12:32:09;;;;;;;5.32;2.63;;;13.80;99.90;;;;;;5054501;28;20210;-64
2023/10/30 12:34:36;;;;;;;4.40;2.13;;;13.70;99.90;;;;;;5054724;28;20175;-64
2023/10/30 12:37:29;;;;;;;4.38;1.80;;;13.60;99.90;;;;;;5054610;28;20194;-64
2023/10/30 12:40:03;;;;;;;4.53;2.10;;;13.60;99.90;;;;;;5054455;28;20203;-64
2023/10/30 12:42:33;;;;;;;4.15;2.03;;;13.60;99.90;;;;;;5054297;28;20178;-64